Time;durP1;ratioP1;P1;durP2;ratioP2;P2;SDS_P1;SDS_P2;PMS_P1;PMS_P2;Temp;Humidity;BMP_temperature;BMP_pressure;BME280_temperature;BME280_humidity;BME280_pressure;Samples;Min_cycle;Max_cycle;Signal;HPM_P1;HPM_P2
2021/11/25 00:02:23;;;;;;;20.53;13.90;;;1.10;95.90;;;;;;5049975;28;20216;-86
2021/11/25 00:04:50;;;;;;;21.90;14.10;;;1.20;95.90;;;;;;5057917;28;20203;-85
2021/11/25 00:07:17;;;;;;;20.40;13.20;;;1.30;95.40;;;;;;5056511;28;20805;-85
2021/11/25 00:09:44;;;;;;;20.30;13.83;;;1.30;95.50;;;;;;5049251;28;20233;-85
2021/11/25 00:12:11;;;;;;;21.80;13.03;;;1.20;95.20;;;;;;5048504;28;20216;-85
2021/11/25 00:14:40;;;;;;;22.67;14.47;;;1.10;95.20;;;;;;5049575;28;20209;-86
2021/11/25 00:17:07;;;;;;;34.20;14.90;;;1.00;95.30;;;;;;5052653;28;20574;-86
2021/11/25 00:19:34;;;;;;;22.80;14.67;;;1.00;95.70;;;;;;5048467;28;20205;-85
2021/11/25 00:22:01;;;;;;;23.50;14.60;;;1.00;96.00;;;;;;5040242;28;20233;-84
2021/11/25 00:24:28;;;;;;;22.03;15.07;;;1.20;96.10;;;;;;5043959;28;20198;-85
2021/11/25 00:26:55;;;;;;;23.40;15.07;;;1.20;95.60;;;;;;5045706;28;20917;-86
2021/11/25 00:29:23;;;;;;;20.93;14.30;;;1.20;95.60;;;;;;5046206;28;20217;-88
2021/11/25 00:31:51;;;;;;;21.47;14.40;;;1.10;95.60;;;;;;5036587;28;20594;-86
2021/11/25 00:34:18;;;;;;;22.43;14.17;;;1.10;95.60;;;;;;5047022;28;20199;-88
2021/11/25 00:36:45;;;;;;;23.07;14.80;;;1.20;95.70;;;;;;5041960;28;20261;-86
2021/11/25 00:39:13;;;;;;;23.87;15.17;;;1.40;96.10;;;;;;5039677;28;20288;-85
2021/11/25 00:41:41;;;;;;;23.53;14.73;;;1.20;95.50;;;;;;5045191;28;20215;-85
2021/11/25 00:44:08;;;;;;;20.43;13.93;;;1.30;95.70;;;;;;5047084;28;20689;-85
2021/11/25 00:46:35;;;;;;;24.10;14.80;;;1.50;95.70;;;;;;5043234;28;20229;-86
2021/11/25 00:49:04;;;;;;;25.33;15.30;;;1.50;94.90;;;;;;5046574;28;20233;-85
2021/11/25 00:51:32;;;;;;;24.40;13.77;;;1.40;95.00;;;;;;5040586;28;20236;-84
2021/11/25 00:53:59;;;;;;;28.73;15.87;;;1.40;95.10;;;;;;5039133;28;20212;-85
2021/11/25 00:56:26;;;;;;;24.10;15.40;;;1.30;95.10;;;;;;5031561;28;20685;-85
2021/11/25 00:58:53;;;;;;;26.27;16.03;;;1.20;95.80;;;;;;5042397;28;20208;-86
2021/11/25 01:01:20;;;;;;;22.53;14.67;;;1.20;95.90;;;;;;5040624;28;20221;-85
2021/11/25 01:03:47;;;;;;;25.93;15.83;;;1.40;95.90;;;;;;5043351;28;20555;-86
2021/11/25 01:06:16;;;;;;;20.37;14.80;;;1.50;95.40;;;;;;5043960;28;20350;-85
2021/11/25 01:08:43;;;;;;;26.67;15.60;;;1.50;95.60;;;;;;5042653;28;20599;-85
2021/11/25 01:11:12;;;;;;;26.50;16.53;;;1.40;95.10;;;;;;5045539;28;20245;-85
2021/11/25 01:13:41;;;;;;;25.40;16.10;;;1.30;95.40;;;;;;5049524;28;20347;-84
2021/11/25 01:16:10;;;;;;;28.43;16.93;;;1.30;96.10;;;;;;5048575;28;20580;-86
2021/11/25 01:18:37;;;;;;;29.83;16.67;;;1.40;96.20;;;;;;5039609;28;20224;-84
2021/11/25 01:21:04;;;;;;;25.00;15.63;;;1.60;96.00;;;;;;5045929;28;20273;-85
2021/11/25 01:23:33;;;;;;;26.23;16.90;;;1.50;95.80;;;;;;5050117;28;20198;-85
2021/11/25 01:26:00;;;;;;;24.90;16.87;;;1.50;95.40;;;;;;5050190;28;20305;-86
2021/11/25 01:28:29;;;;;;;23.00;15.57;;;1.40;95.40;;;;;;5051132;28;20234;-85
2021/11/25 01:31:00;;;;;;;25.90;16.50;;;1.30;96.10;;;;;;5051467;28;20226;-86
2021/11/25 01:33:28;;;;;;;25.60;16.63;;;1.40;96.30;;;;;;5047484;28;20225;-84
2021/11/25 01:35:56;;;;;;;24.70;16.27;;;1.60;96.00;;;;;;5047010;28;20900;-85
2021/11/25 01:38:24;;;;;;;31.17;17.17;;;1.50;95.80;;;;;;5048213;28;20190;-85
2021/11/25 01:40:53;;;;;;;27.10;16.47;;;1.50;95.40;;;;;;5046943;28;20217;-84
2021/11/25 01:43:22;;;;;;;23.57;16.07;;;1.30;95.90;;;;;;5048697;28;20584;-87
2021/11/25 01:45:50;;;;;;;24.33;15.63;;;1.60;96.40;;;;;;5043421;28;20226;-84
2021/11/25 01:48:18;;;;;;;28.27;15.70;;;1.60;95.60;;;;;;5046905;28;20202;-85
2021/11/25 01:50:46;;;;;;;22.27;15.00;;;1.60;95.60;;;;;;5043725;28;20248;-86
2021/11/25 01:53:15;;;;;;;23.33;14.60;;;1.60;95.70;;;;;;5033861;28;20451;-85
2021/11/25 01:55:42;;;;;;;22.43;14.20;;;1.70;95.20;;;;;;5041954;28;20226;-84
2021/11/25 01:58:10;;;;;;;36.20;16.10;;;1.80;95.30;;;;;;5046027;28;20672;-86
2021/11/25 02:00:41;;;;;;;24.30;15.63;;;1.80;94.60;;;;;;5039693;28;20696;-86
2021/11/25 02:03:08;;;;;;;25.37;15.40;;;1.70;94.70;;;;;;5049777;28;20502;-85
2021/11/25 02:05:36;;;;;;;22.40;15.00;;;1.60;94.70;;;;;;5044949;28;20217;-91
2021/11/25 02:08:05;;;;;;;24.93;15.83;;;1.60;95.50;;;;;;5052718;28;20202;-87
2021/11/25 02:10:32;;;;;;;25.00;16.57;;;1.60;95.20;;;;;;5055879;28;20239;-90
2021/11/25 02:13:00;;;;;;;22.70;15.23;;;1.40;95.30;;;;;;5054512;28;20196;-86
2021/11/25 02:15:34;;;;;;;24.23;15.53;;;1.60;96.20;;;;;;5047502;28;20232;-85
2021/11/25 02:18:02;;;;;;;23.83;15.33;;;1.60;95.80;;;;;;5036301;28;20205;-85
2021/11/25 02:20:34;;;;;;;25.33;15.93;;;1.60;95.40;;;;;;5047271;28;20232;-85
2021/11/25 02:23:02;;;;;;;26.33;15.37;;;1.60;95.50;;;;;;5049574;28;20209;-84
2021/11/25 02:25:29;;;;;;;21.23;14.97;;;1.70;95.40;;;;;;5048196;28;20226;-85
2021/11/25 02:27:57;;;;;;;23.37;14.77;;;1.70;95.50;;;;;;5049543;28;20202;-85
2021/11/25 02:30:24;;;;;;;24.80;15.40;;;1.80;95.00;;;;;;5050571;28;20234;-85
2021/11/25 02:32:52;;;;;;;24.80;15.77;;;1.60;94.70;;;;;;5051780;28;20562;-85
2021/11/25 02:35:21;;;;;;;22.13;14.10;;;1.70;95.30;;;;;;5048298;28;20226;-86
2021/11/25 02:37:51;;;;;;;24.77;15.33;;;1.70;95.40;;;;;;5045039;28;20194;-87
2021/11/25 02:40:22;;;;;;;25.17;15.07;;;1.80;95.30;;;;;;5047340;28;20689;-85
2021/11/25 02:42:52;;;;;;;23.77;15.23;;;1.60;94.40;;;;;;5043119;28;20199;-85
2021/11/25 02:45:20;;;;;;;23.57;14.73;;;1.50;95.20;;;;;;5042840;28;20225;-85
2021/11/25 02:47:47;;;;;;;21.37;15.40;;;1.60;95.50;;;;;;5049383;28;20198;-86
2021/11/25 02:50:17;;;;;;;23.63;15.20;;;1.50;95.50;;;;;;5042700;28;20234;-84
2021/11/25 02:52:45;;;;;;;23.03;14.80;;;1.30;95.60;;;;;;5048624;28;20509;-84
2021/11/25 02:55:14;;;;;;;23.63;15.33;;;1.40;95.70;;;;;;5043070;28;20237;-84
2021/11/25 02:57:43;;;;;;;30.77;16.07;;;1.40;95.60;;;;;;5049050;28;20199;-85
2021/11/25 03:00:28;;;;;;;30.60;15.63;;;1.50;95.40;;;;;;5044621;28;20238;-85
2021/11/25 03:02:56;;;;;;;23.73;14.63;;;1.50;95.50;;;;;;5044216;28;20210;-84
2021/11/25 03:05:23;;;;;;;22.70;14.30;;;1.40;95.50;;;;;;5050783;28;20657;-85
2021/11/25 03:07:50;;;;;;;22.30;15.40;;;1.30;95.70;;;;;;5047636;28;20204;-85
2021/11/25 03:10:19;;;;;;;24.37;15.87;;;1.30;95.80;;;;;;5049886;28;20665;-87
2021/11/25 03:12:46;;;;;;;23.80;14.60;;;1.30;96.10;;;;;;5048765;28;20229;-87
2021/11/25 03:15:13;;;;;;;22.37;14.13;;;1.50;96.60;;;;;;5041032;28;20240;-84
2021/11/25 03:17:40;;;;;;;22.83;14.67;;;1.60;95.90;;;;;;5049478;28;20585;-84
2021/11/25 03:20:09;;;;;;;22.90;14.83;;;1.60;95.40;;;;;;5051708;28;20229;-84
2021/11/25 03:22:36;;;;;;;20.90;14.23;;;1.50;95.40;;;;;;5047600;28;20197;-87
2021/11/25 03:25:05;;;;;;;23.73;14.53;;;1.40;95.70;;;;;;5044366;28;20206;-85
2021/11/25 03:27:33;;;;;;;22.47;14.87;;;1.60;96.50;;;;;;5042997;28;20202;-88
2021/11/25 03:30:00;;;;;;;19.73;13.70;;;1.80;96.00;;;;;;5050835;28;20409;-86
2021/11/25 03:32:27;;;;;;;24.67;14.67;;;1.70;95.10;;;;;;5052447;28;20197;-84
2021/11/25 03:34:55;;;;;;;20.33;14.30;;;1.60;95.20;;;;;;5047733;28;20210;-86
2021/11/25 03:37:22;;;;;;;23.90;15.00;;;1.50;95.60;;;;;;5050650;28;20236;-84
2021/11/25 03:39:49;;;;;;;24.17;14.47;;;1.60;95.60;;;;;;5044864;28;20221;-85
2021/11/25 03:42:16;;;;;;;27.47;14.40;;;1.70;95.10;;;;;;5049983;28;20685;-84
2021/11/25 03:44:46;;;;;;;33.70;15.37;;;1.40;95.00;;;;;;5049405;28;20217;-86
2021/11/25 03:47:14;;;;;;;23.77;14.57;;;1.20;95.60;;;;;;5047944;28;20230;-87
2021/11/25 03:49:42;;;;;;;22.90;14.70;;;1.00;96.00;;;;;;5052224;28;20233;-87
2021/11/25 03:52:09;;;;;;;27.33;14.73;;;1.10;96.70;;;;;;5048065;28;20427;-84
2021/11/25 03:54:36;;;;;;;25.50;15.40;;;1.10;96.60;;;;;;5050015;28;20556;-87
2021/11/25 03:57:03;;;;;;;24.77;15.00;;;1.00;96.70;;;;;;5040960;28;20307;-85
2021/11/25 03:59:30;;;;;;;24.20;15.20;;;1.10;97.10;;;;;;5044446;28;20205;-85
2021/11/25 04:01:59;;;;;;;21.63;13.67;;;1.30;97.20;;;;;;5046639;28;20225;-83
2021/11/25 04:04:26;;;;;;;22.17;13.63;;;1.50;96.60;;;;;;5049678;28;20202;-86
2021/11/25 04:06:53;;;;;;;21.53;13.53;;;1.70;96.30;;;;;;5048052;28;20253;-85
2021/11/25 04:09:20;;;;;;;20.20;12.23;;;1.80;95.70;;;;;;5047977;28;20445;-85
2021/11/25 04:11:47;;;;;;;22.27;13.47;;;1.80;95.50;;;;;;5044968;28;20607;-84
2021/11/25 04:14:14;;;;;;;18.63;13.10;;;1.70;94.90;;;;;;5053026;28;20204;-86
2021/11/25 04:16:41;;;;;;;22.87;13.47;;;1.80;95.00;;;;;;5062593;28;20213;-86
2021/11/25 04:19:09;;;;;;;20.33;13.10;;;1.90;95.20;;;;;;5065747;28;20202;-85
2021/11/25 04:21:36;;;;;;;20.47;13.43;;;1.80;94.60;;;;;;5052256;28;20225;-84
2021/11/25 04:24:04;;;;;;;21.43;13.43;;;1.90;95.00;;;;;;5050778;28;20206;-84
2021/11/25 04:26:31;;;;;;;22.30;14.37;;;1.90;95.10;;;;;;5049406;28;20236;-84
2021/11/25 04:28:58;;;;;;;19.73;13.37;;;1.90;94.40;;;;;;5051196;28;20571;-84
2021/11/25 04:36:55;;;;;;;23.43;13.20;;;1.70;95.00;;;;;;5046704;28;20232;-86
2021/11/25 04:39:22;;;;;;;20.63;13.57;;;1.60;95.10;;;;;;5050220;28;20244;-86
2021/11/25 04:41:49;;;;;;;38.37;13.73;;;1.70;95.20;;;;;;5051563;28;20700;-88
2021/11/25 04:44:17;;;;;;;24.40;13.83;;;1.60;94.90;;;;;;5050478;28;20218;-87
2021/11/25 04:46:44;;;;;;;21.03;13.67;;;1.60;95.30;;;;;;5039614;28;20225;-86
2021/11/25 04:49:12;;;;;;;20.13;12.97;;;1.60;95.30;;;;;;5048403;28;20289;-88
2021/11/25 04:51:39;;;;;;;39.07;13.93;;;1.50;95.30;;;;;;5045158;28;20226;-86
2021/11/25 04:54:08;;;;;;;22.23;13.27;;;1.60;95.60;;;;;;5052197;28;20205;-87
2021/11/25 04:56:36;;;;;;;24.27;13.50;;;1.50;95.40;;;;;;5050544;28;20226;-86
2021/11/25 04:59:03;;;;;;;22.10;13.80;;;1.30;95.40;;;;;;5054896;28;20690;-84
2021/11/25 05:01:31;;;;;;;18.67;13.00;;;1.40;96.00;;;;;;5057095;28;20225;-86
2021/11/25 05:03:58;;;;;;;21.63;12.47;;;1.60;96.20;;;;;;5059263;28;20208;-86
2021/11/25 05:06:26;;;;;;;19.97;13.30;;;2.00;96.20;;;;;;5047603;28;20225;-87
2021/11/25 05:08:53;;;;;;;20.73;13.37;;;2.10;94.80;;;;;;5049787;28;20202;-85
2021/11/25 05:11:20;;;;;;;22.73;13.80;;;2.20;94.50;;;;;;5048206;28;20229;-86
2021/11/25 05:13:47;;;;;;;19.67;13.03;;;2.00;94.40;;;;;;5049967;28;20201;-87
2021/11/25 05:16:14;;;;;;;21.23;12.97;;;1.80;94.40;;;;;;5049854;28;20225;-86
2021/11/25 05:18:41;;;;;;;20.20;12.87;;;1.80;95.20;;;;;;5051233;28;20209;-88
2021/11/25 05:21:08;;;;;;;18.63;11.80;;;1.80;94.90;;;;;;5049409;28;20692;-86
2021/11/25 05:23:36;;;;;;;26.13;12.23;;;1.80;94.40;;;;;;5047872;28;20515;-87
2021/11/25 05:26:05;;;;;;;20.10;11.90;;;1.60;94.40;;;;;;5039225;28;20584;-87
2021/11/25 05:28:32;;;;;;;32.07;11.97;;;1.50;94.30;;;;;;5051166;28;20297;-85
2021/11/25 05:30:59;;;;;;;24.33;12.87;;;1.20;94.70;;;;;;5047899;28;20681;-86
2021/11/25 05:33:27;;;;;;;26.17;12.80;;;1.00;95.30;;;;;;5053762;28;20209;-86
2021/11/25 05:35:54;;;;;;;32.73;12.40;;;0.90;96.00;;;;;;5044270;28;20237;-85
2021/11/25 05:38:21;;;;;;;23.97;12.07;;;0.90;96.50;;;;;;5053100;28;20202;-85
2021/11/25 05:40:49;;;;;;;19.07;11.17;;;0.80;96.80;;;;;;5052112;28;20224;-86
2021/11/25 05:43:16;;;;;;;30.83;12.60;;;1.00;96.80;;;;;;5047020;28;20304;-86
2021/11/25 05:45:43;;;;;;;27.97;12.50;;;1.10;96.50;;;;;;5043352;28;20221;-86
2021/11/25 05:48:10;;;;;;;22.07;12.70;;;1.10;96.10;;;;;;5045087;28;20665;-86
2021/11/25 05:50:37;;;;;;;19.47;12.60;;;1.10;96.30;;;;;;5047406;28;20615;-86
2021/11/25 05:53:05;;;;;;;16.80;11.33;;;1.40;96.90;;;;;;5051092;28;20208;-86
2021/11/25 05:55:32;;;;;;;17.73;12.00;;;1.70;96.70;;;;;;5056361;28;20229;-87
2021/11/25 05:58:03;;;;;;;16.37;11.03;;;1.70;95.60;;;;;;5052040;28;20218;-87
2021/11/25 06:00:30;;;;;;;20.53;11.13;;;1.50;95.50;;;;;;5044557;28;20351;-87
2021/11/25 06:02:57;;;;;;;18.07;11.70;;;1.80;95.50;;;;;;5050905;28;20675;-87
2021/11/25 06:05:24;;;;;;;42.43;24.73;;;1.60;94.40;;;;;;5049326;28;20227;-86
2021/11/25 06:07:52;;;;;;;43.97;26.50;;;1.70;96.00;;;;;;5054352;28;20197;-87
2021/11/25 06:10:21;;;;;;;32.27;20.60;;;2.00;95.90;;;;;;5048740;28;20218;-86
2021/11/25 06:12:49;;;;;;;25.13;16.33;;;2.30;94.50;;;;;;5048463;28;20205;-86
2021/11/25 06:15:18;;;;;;;48.90;29.00;;;2.10;93.40;;;;;;5053184;28;20236;-86
2021/11/25 06:17:54;;;;;;;20.37;12.33;;;2.10;94.60;;;;;;5047851;28;20658;-86
2021/11/25 06:20:23;;;;;;;19.60;12.20;;;2.10;93.60;;;;;;5049830;28;20222;-86
2021/11/25 06:22:51;;;;;;;20.20;10.77;;;2.10;93.70;;;;;;5051423;28;20663;-87
2021/11/25 06:25:20;;;;;;;16.77;11.10;;;2.00;93.40;;;;;;5054170;28;20225;-87
2021/11/25 06:27:47;;;;;;;14.87;9.70;;;1.90;93.70;;;;;;5051336;28;20224;-86
2021/11/25 06:30:16;;;;;;;24.47;10.77;;;1.80;93.90;;;;;;5049275;28;20237;-86
2021/11/25 06:32:47;;;;;;;16.00;10.67;;;1.50;93.30;;;;;;5055157;28;20205;-86
2021/11/25 06:35:15;;;;;;;15.97;9.97;;;1.40;94.30;;;;;;5054837;28;20225;-86
2021/11/25 06:37:45;;;;;;;15.10;10.80;;;1.40;94.30;;;;;;5047638;28;20202;-87
2021/11/25 06:40:14;;;;;;;18.33;10.77;;;1.60;95.40;;;;;;5057695;28;20275;-86
2021/11/25 06:42:41;;;;;;;13.93;10.17;;;1.80;94.90;;;;;;5057632;28;20209;-86
2021/11/25 06:45:09;;;;;;;16.50;10.43;;;1.80;94.40;;;;;;5060289;28;20275;-85
2021/11/25 06:47:37;;;;;;;19.97;10.17;;;1.70;94.40;;;;;;5061209;28;20213;-86
2021/11/25 06:50:07;;;;;;;20.30;10.37;;;1.80;94.40;;;;;;5055148;28;20201;-86
2021/11/25 06:52:34;;;;;;;17.60;10.90;;;1.70;94.00;;;;;;5052097;28;20649;-85
2021/11/25 06:55:01;;;;;;;17.40;10.87;;;1.40;93.90;;;;;;5055539;28;20568;-86
2021/11/25 06:57:29;;;;;;;14.73;10.53;;;1.10;94.50;;;;;;5049489;28;20389;-85
2021/11/25 06:59:56;;;;;;;15.30;11.03;;;1.00;94.80;;;;;;5041774;28;20205;-85
2021/11/25 07:02:23;;;;;;;14.60;10.37;;;1.10;95.90;;;;;;5045826;28;20205;-84
2021/11/25 07:04:50;;;;;;;13.60;9.73;;;1.50;96.70;;;;;;5044780;28;20198;-85
2021/11/25 07:07:18;;;;;;;13.43;9.73;;;1.60;95.50;;;;;;5043934;28;20210;-84
2021/11/25 07:09:46;;;;;;;13.53;9.67;;;1.60;94.40;;;;;;5041457;28;20706;-87
2021/11/25 07:12:13;;;;;;;17.47;9.80;;;1.70;94.40;;;;;;5039535;28;20222;-85
2021/11/25 07:14:40;;;;;;;18.70;10.43;;;1.40;94.00;;;;;;5041861;28;20194;-86
2021/11/25 07:17:07;;;;;;;12.67;9.87;;;1.30;94.70;;;;;;5047184;28;20610;-85
2021/11/25 07:19:34;;;;;;;16.90;10.87;;;1.40;95.10;;;;;;5048608;28;20197;-87
2021/11/25 07:22:01;;;;;;;13.90;10.30;;;1.10;94.60;;;;;;5043908;28;20238;-85
2021/11/25 07:24:29;;;;;;;15.23;10.03;;;1.10;95.30;;;;;;5045496;28;20213;-85
2021/11/25 07:26:57;;;;;;;14.20;9.70;;;1.30;95.80;;;;;;5048767;28;20230;-85
2021/11/25 07:29:24;;;;;;;17.10;10.10;;;1.30;95.40;;;;;;5051920;28;20264;-85
2021/11/25 07:31:51;;;;;;;16.03;9.30;;;1.50;95.00;;;;;;5050177;28;20229;-85
2021/11/25 07:34:18;;;;;;;14.27;9.00;;;1.50;94.30;;;;;;5051983;28;20205;-85
2021/11/25 07:36:45;;;;;;;15.03;9.87;;;1.60;95.30;;;;;;5041216;28;20222;-85
2021/11/25 07:39:12;;;;;;;14.80;9.47;;;1.60;94.20;;;;;;5044052;28;20203;-86
2021/11/25 07:41:41;;;;;;;13.27;9.53;;;1.50;94.10;;;;;;5049224;28;20230;-86
2021/11/25 07:44:08;;;;;;;13.43;9.20;;;1.50;94.70;;;;;;5044598;28;20312;-85
2021/11/25 07:46:36;;;;;;;11.93;8.47;;;1.40;94.30;;;;;;5037556;28;20218;-85
2021/11/25 07:49:04;;;;;;;12.87;9.20;;;1.70;95.10;;;;;;5044625;28;20283;-85
2021/11/25 07:51:31;;;;;;;11.87;9.20;;;2.00;94.20;;;;;;5044708;28;20235;-86
2021/11/25 07:54:00;;;;;;;16.93;9.70;;;1.80;92.90;;;;;;5046593;28;20202;-85
2021/11/25 07:56:27;;;;;;;18.23;8.90;;;1.60;93.00;;;;;;5043616;28;20230;-84
2021/11/25 07:58:55;;;;;;;13.50;9.43;;;1.50;93.30;;;;;;5050789;28;20920;-83
2021/11/25 08:01:22;;;;;;;13.07;8.67;;;1.50;94.80;;;;;;5043014;28;20684;-85
2021/11/25 08:03:49;;;;;;;14.73;9.37;;;2.10;95.40;;;;;;5044391;28;20205;-85
2021/11/25 08:06:16;;;;;;;12.93;9.47;;;2.40;93.50;;;;;;5038019;28;20221;-85
2021/11/25 08:08:43;;;;;;;12.47;9.40;;;2.70;92.20;;;;;;5043369;28;20649;-85
2021/11/25 08:11:10;;;;;;;11.97;8.97;;;2.70;91.90;;;;;;5035744;28;20218;-85
2021/11/25 08:13:37;;;;;;;11.43;8.90;;;2.80;91.90;;;;;;5044551;28;20206;-84
2021/11/25 08:16:06;;;;;;;12.47;9.20;;;2.90;91.30;;;;;;5047964;28;20704;-85
2021/11/25 08:18:33;;;;;;;12.50;9.50;;;2.90;92.20;;;;;;5042223;28;20680;-85
2021/11/25 08:21:00;;;;;;;13.97;9.67;;;2.90;91.10;;;;;;5054231;28;20221;-85
2021/11/25 08:23:27;;;;;;;13.67;9.30;;;2.90;91.30;;;;;;5055228;28;20639;-84
2021/11/25 08:25:54;;;;;;;11.57;8.77;;;2.80;91.60;;;;;;5049247;28;20225;-84
2021/11/25 08:28:22;;;;;;;14.43;9.87;;;2.80;91.30;;;;;;5054411;28;20198;-86
2021/11/25 08:30:49;;;;;;;12.90;8.97;;;2.70;91.90;;;;;;5057865;28;20222;-85
2021/11/25 08:33:17;;;;;;;14.07;9.20;;;2.90;92.30;;;;;;5047602;28;20217;-85
2021/11/25 08:35:45;;;;;;;15.83;10.43;;;3.00;92.00;;;;;;5048605;28;20226;-86
2021/11/25 08:38:12;;;;;;;14.60;9.70;;;3.10;90.70;;;;;;5048386;28;20198;-84
2021/11/25 08:40:39;;;;;;;13.53;9.87;;;3.20;90.80;;;;;;5047053;28;20236;-85
2021/11/25 08:43:06;;;;;;;16.50;10.20;;;3.20;90.90;;;;;;5049829;28;20229;-85
2021/11/25 08:45:34;;;;;;;16.93;10.93;;;3.30;91.00;;;;;;5040498;28;20698;-85
2021/11/25 08:48:02;;;;;;;13.97;10.03;;;2.90;90.50;;;;;;5048033;28;20273;-85
2021/11/25 08:50:30;;;;;;;14.07;10.10;;;2.90;91.30;;;;;;5046046;28;20685;-86
2021/11/25 08:52:57;;;;;;;14.93;9.90;;;2.70;91.30;;;;;;5045003;28;20222;-87
2021/11/25 08:55:24;;;;;;;13.67;9.40;;;2.80;91.60;;;;;;5039285;28;20703;-85
2021/11/25 08:57:51;;;;;;;13.00;9.00;;;3.10;91.60;;;;;;5047298;28;20198;-86
2021/11/25 09:00:22;;;;;;;14.47;9.50;;;3.20;91.00;;;;;;5041322;28;20225;-86
2021/11/25 09:02:49;;;;;;;14.33;10.10;;;3.30;90.90;;;;;;5041933;28;20205;-86
2021/11/25 09:05:17;;;;;;;13.03;9.93;;;3.30;90.10;;;;;;5047367;28;20248;-86
2021/11/25 09:07:45;;;;;;;14.57;10.13;;;3.00;89.80;;;;;;5045373;28;20225;-84
2021/11/25 09:13:24;;;;;;;12.83;9.70;;;2.60;91.60;;;;;;5035671;28;20194;-85
2021/11/25 09:15:59;;;;;;;12.97;8.47;;;2.90;91.20;;;;;;5034275;28;20186;-84
2021/11/25 09:18:26;;;;;;;12.80;9.17;;;3.00;91.10;;;;;;5051021;28;20208;-84
2021/11/25 09:20:53;;;;;;;12.23;8.70;;;3.10;90.00;;;;;;5048294;28;20198;-89
2021/11/25 09:23:22;;;;;;;10.70;8.43;;;3.20;90.70;;;;;;5046510;28;20544;-85
2021/11/25 09:25:50;;;;;;;12.43;8.97;;;3.30;90.80;;;;;;5041586;28;20233;-84
2021/11/25 09:28:27;;;;;;;12.87;9.53;;;3.50;90.40;;;;;;5048115;28;20607;-90
2021/11/25 09:30:55;;;;;;;14.07;9.60;;;3.50;88.00;;;;;;5045192;28;20232;-89
2021/11/25 09:33:23;;;;;;;13.27;9.17;;;3.40;88.00;;;;;;5043859;28;20296;-85
2021/11/25 09:35:50;;;;;;;11.83;9.10;;;3.30;88.80;;;;;;5043406;28;20217;-90
2021/11/25 09:38:17;;;;;;;14.93;8.57;;;3.60;88.70;;;;;;5041998;28;20198;-87
2021/11/25 09:40:48;;;;;;;13.40;8.87;;;3.80;87.40;;;;;;5037830;28;20221;-89
2021/11/25 09:46:38;;;;;;;11.67;8.30;;;3.90;85.10;;;;;;5045318;28;20259;-85
2021/11/25 09:49:06;;;;;;;12.10;8.10;;;3.80;83.50;;;;;;5053316;28;20210;-85
2021/11/25 09:51:34;;;;;;;10.47;7.87;;;4.00;87.00;;;;;;5047715;28;20226;-85
2021/11/25 09:54:01;;;;;;;11.73;8.67;;;4.20;84.30;;;;;;5053421;28;20198;-86
2021/11/25 09:56:30;;;;;;;12.63;8.50;;;4.30;82.30;;;;;;5050896;28;20234;-85
2021/11/25 09:58:57;;;;;;;13.63;8.67;;;4.10;81.60;;;;;;5051844;28;20197;-85
2021/11/25 10:01:25;;;;;;;11.27;8.63;;;3.80;82.90;;;;;;5042014;28;20230;-85
2021/11/25 10:03:54;;;;;;;14.73;9.57;;;4.00;83.70;;;;;;5053153;28;20198;-85
2021/11/25 10:06:23;;;;;;;15.13;10.23;;;4.00;83.00;;;;;;5054053;28;20305;-85
2021/11/25 10:08:52;;;;;;;16.60;10.00;;;3.80;85.10;;;;;;5053949;28;20550;-86
2021/11/25 10:11:24;;;;;;;22.77;11.37;;;4.00;84.40;;;;;;5053597;28;20229;-86
2021/11/25 10:13:55;;;;;;;14.90;11.07;;;3.60;83.30;;;;;;5048765;28;20190;-86
2021/11/25 10:16:25;;;;;;;16.53;10.70;;;3.60;84.30;;;;;;5047498;28;20301;-85
2021/11/25 10:18:52;;;;;;;15.90;11.43;;;3.40;87.00;;;;;;5052437;28;20202;-86
2021/11/25 10:21:21;;;;;;;13.87;10.53;;;3.70;87.00;;;;;;5046554;28;20223;-86
2021/11/25 10:23:51;;;;;;;14.27;10.83;;;3.50;85.20;;;;;;5049227;28;20668;-87
2021/11/25 10:26:21;;;;;;;14.87;10.40;;;3.80;86.00;;;;;;5052340;28;20389;-86
2021/11/25 10:28:53;;;;;;;16.13;10.43;;;4.10;87.00;;;;;;5053695;28;20190;-85
2021/11/25 10:31:24;;;;;;;15.73;10.60;;;4.60;84.20;;;;;;5047054;28;20260;-86
2021/11/25 10:33:55;;;;;;;17.60;11.40;;;5.00;80.90;;;;;;5043188;28;20653;-86
2021/11/25 10:36:52;;;;;;;17.40;11.83;;;5.20;79.00;;;;;;5052063;28;20259;-88
2021/11/25 10:42:09;;;;;;;17.83;12.03;;;5.10;79.70;;;;;;5028761;28;20303;-88
2021/11/25 10:44:39;;;;;;;21.07;11.37;;;5.10;76.90;;;;;;5054598;28;20226;-88
2021/11/25 10:47:08;;;;;;;19.70;11.63;;;5.10;80.30;;;;;;5054632;28;20592;-88
2021/11/25 10:49:46;;;;;;;19.37;11.60;;;5.30;78.30;;;;;;5055869;28;20216;-87
2021/11/25 10:52:23;;;;;;;18.17;12.47;;;5.40;77.30;;;;;;5055006;28;20241;-89
2021/11/25 10:54:52;;;;;;;18.33;13.23;;;5.40;77.20;;;;;;5036499;28;20197;-89
2021/11/25 11:14:43;;;;;;;16.20;11.77;;;5.90;76.30;;;;;;5048598;28;20561;-92
2021/11/25 11:17:27;;;;;;;21.17;13.03;;;6.20;72.70;;;;;;5044300;28;20237;-89
2021/11/25 11:23:37;;;;;;;18.43;12.20;;;6.40;69.80;;;;;;5057630;28;20181;-85
2021/11/25 11:26:06;;;;;;;20.07;13.20;;;6.40;71.20;;;;;;5047000;28;20257;-89
2021/11/25 11:28:33;;;;;;;18.07;11.93;;;5.70;70.40;;;;;;5038464;28;20206;-89
2021/11/25 11:31:02;;;;;;;23.67;14.40;;;5.50;72.90;;;;;;5038006;28;20234;-90
2021/11/25 11:33:29;;;;;;;16.50;12.00;;;5.40;72.80;;;;;;5036428;28;20223;-88
2021/11/25 11:35:57;;;;;;;20.43;13.53;;;5.40;76.30;;;;;;5040198;28;20304;-90
2021/11/25 11:38:27;;;;;;;23.20;13.53;;;5.30;75.40;;;;;;5040285;28;20320;-90
2021/11/25 11:40:57;;;;;;;20.27;13.70;;;5.10;76.70;;;;;;5041825;28;20236;-90
2021/11/25 11:43:24;;;;;;;17.33;12.63;;;5.20;78.00;;;;;;5034498;28;20210;-90
2021/11/25 11:45:52;;;;;;;18.70;12.93;;;5.60;78.50;;;;;;5045515;28;20596;-89
2021/11/25 11:48:21;;;;;;;17.00;12.90;;;5.80;75.60;;;;;;5043008;28;20202;-91
2021/11/25 11:50:50;;;;;;;24.33;13.70;;;5.70;70.40;;;;;;5041915;28;20525;-89
2021/11/25 11:53:22;;;;;;;21.77;13.03;;;5.30;75.00;;;;;;5045999;28;20304;-88
2021/11/25 11:55:57;;;;;;;19.30;13.50;;;5.10;78.10;;;;;;5041961;28;20268;-89
2021/11/25 11:58:30;;;;;;;17.03;11.97;;;4.80;78.10;;;;;;5046216;28;20202;-89
2021/11/25 12:00:59;;;;;;;20.23;12.20;;;4.90;80.80;;;;;;5052970;28;20309;-89
2021/11/25 12:03:33;;;;;;;15.80;11.30;;;5.30;80.70;;;;;;5044220;28;20202;-88
2021/11/25 12:06:00;;;;;;;19.87;12.83;;;5.60;78.30;;;;;;5039471;28;20595;-88
2021/11/25 12:08:46;;;;;;;20.00;14.87;;;5.80;77.30;;;;;;5041023;28;20195;-90
2021/11/25 12:11:18;;;;;;;22.77;14.63;;;5.70;75.30;;;;;;5044941;28;20221;-88
2021/11/25 12:14:14;;;;;;;23.63;16.17;;;5.30;76.10;;;;;;5045187;28;20382;-88
2021/11/25 12:16:47;;;;;;;24.43;16.20;;;4.90;78.70;;;;;;5026510;28;20226;-89
2021/11/25 12:19:27;;;;;;;25.07;14.37;;;4.70;80.30;;;;;;5045750;28;20201;-89
2021/11/25 12:21:56;;;;;;;24.60;15.37;;;4.70;83.00;;;;;;5042497;28;20222;-89
2021/11/25 12:24:29;;;;;;;23.53;15.37;;;4.60;81.10;;;;;;5038230;28;20202;-88
2021/11/25 12:27:16;;;;;;;22.47;15.23;;;4.30;82.20;;;;;;5049117;28;20693;-89
2021/11/25 12:29:54;;;;;;;25.40;16.10;;;4.20;85.80;;;;;;5038223;28;20250;-87
2021/11/25 12:32:48;;;;;;;21.00;15.23;;;4.20;84.30;;;;;;5037699;28;20742;-88
2021/11/25 12:35:45;;;;;;;23.37;16.00;;;4.10;83.90;;;;;;5036259;28;21439;-87
2021/11/25 12:38:17;;;;;;;24.00;15.23;;;4.20;84.70;;;;;;5038598;28;20213;-91
2021/11/25 12:41:00;;;;;;;18.87;14.57;;;4.20;84.20;;;;;;5046047;28;20590;-89
2021/11/25 12:43:31;;;;;;;23.23;14.97;;;4.10;84.20;;;;;;5042352;28;20331;-88
2021/11/25 12:46:03;;;;;;;22.40;15.10;;;4.20;86.70;;;;;;5039289;28;20243;-88
2021/11/25 12:48:32;;;;;;;26.17;15.53;;;4.30;84.00;;;;;;5044622;28;20293;-87
2021/11/25 12:51:08;;;;;;;22.03;15.67;;;4.20;85.80;;;;;;5040178;28;20305;-89
2021/11/25 12:53:38;;;;;;;23.83;15.57;;;4.10;84.80;;;;;;5046156;28;20248;-88
2021/11/25 12:56:21;;;;;;;23.90;15.70;;;4.00;85.30;;;;;;5040158;28;20225;-88
2021/11/25 12:58:52;;;;;;;23.00;15.40;;;4.20;85.40;;;;;;5036466;28;20665;-89
2021/11/25 13:01:22;;;;;;;25.73;16.07;;;4.00;85.50;;;;;;5037219;28;20482;-89
2021/11/25 13:03:58;;;;;;;26.67;16.87;;;4.10;86.60;;;;;;5046577;28;20198;-89
2021/11/25 13:06:26;;;;;;;30.50;16.77;;;3.90;87.00;;;;;;5044691;28;20226;-90
2021/11/25 13:08:53;;;;;;;24.80;16.90;;;3.70;88.20;;;;;;5044406;28;20210;-90
2021/11/25 13:11:24;;;;;;;27.27;15.37;;;3.80;89.10;;;;;;5037140;28;20686;-89
2021/11/25 13:13:54;;;;;;;29.40;17.37;;;3.90;88.90;;;;;;5041635;28;20230;-89
2021/11/25 13:16:22;;;;;;;29.20;17.93;;;3.70;88.20;;;;;;5033760;28;20442;-90
2021/11/25 13:18:52;;;;;;;26.70;16.93;;;3.70;88.20;;;;;;5041609;28;20288;-87
2021/11/25 13:21:24;;;;;;;31.27;17.30;;;3.60;88.10;;;;;;5040503;28;20220;-88
2021/11/25 13:24:11;;;;;;;26.23;17.67;;;3.80;89.80;;;;;;5038378;28;20206;-89